Cuyuna, Minnesota
Current Conditions -  °F | °C
As of 5:13 PM on Friday 28 Nov 2014 (Local Time) from KAIT Reporting Station
Overcast Overcast  
Wind Chill: 11°   Ceiling: 3500
Heat Index: 19°   Visibility: 10mi
Dew Point: 10°   Wind: 6mph
Humidity: 68%   Direction: 110°ESE
Pressure: 29.81"   Gusts: NA
Location:  46.4516°N, 93.8664°W
Report Text: KAIT 282313Z AUTO 11005KT 10SM BKN035 OVC049 M07/M12 A2981 RMK AO2
Loading
Personal Weather Stations






























Interactive Weather Map New forecast layout! Learn more

10-Day Weather Forecast

Advertisements
Track Severe Weather on mobile